首页
METAR-TAF:

METAR-TAF

机场 :

黑角, 刚果

纬度: 04-49S, 经度: 011-54E, 海拔: 17米

当前天气观测

该预报发布于1小时和2分钟前的07:00 UTC
风速6节,风向东转东南
温度 23°C
湿度 89%
气压 1016 hPa
能見度: 6000
散云层高于1000英尺
散云层高于2300英尺

METAR: FCPP 230700Z 12006KT 6000 SCT010 SCT023 23/21 Q1016 NOSIG

时间: 09:02 (08:02 UTC)

预报

该预报发布于3小时和2分钟前的05:00 UTC
预报有效从23日的 06点(UTC)到 24日的 06点(UTC)
风速4节,风向东南
能見度: 4000
散云层高于1000英尺
多云层高于2000英尺
轻雾
成为
从 23日的 07点(UTC)到 23日的 08点(UTC)
能見度: 7000

TAF: FCPP 230500Z 2306/2406 13004KT 4000 BR SCT010 BKN020 BECMG 2307/2308 7000 NSW

超过4000个机场的气象观测和天气预报(METAR&TAF报告)。

可查询的气象台以黄色和红色小点在地图上表示。

将鼠标移到小点上方,可查看气象台名称。

然后点击查看天气观测和预报。

如需切换地图:点击带黑十字的绿色按钮放大地图;点击带横线的绿色按钮缩小地图;或者点击绿色箭头查看邻近地区的地图。


METAR-TAF: